Johnson Mountain Twp, Maine
Current Conditions -  °F | °C
As of 7:00 PM on Wednesday 22 Oct 2014 (Local Time) from CYSC Reporting Station
NA  
Wind Chill: 50°   Ceiling: NA
Heat Index: 50°   Visibility: 9mi
Dew Point: 37°   Wind: 12mph
Humidity: 62%   Direction: 60°ENE
Pressure: 30.19"   Gusts: 22mph
Location:  45.7142°N, 70.304°W
Report Text: CYSC 222300Z AUTO 06010G19KT 9SM 10/03 A3019 RMK CLD MISG SLP228
Loading
Personal Weather Stations






























Interactive Weather Map
Tropical Storm Tracking
New forecast layout! Learn more

10-Day Weather Forecast

Advertisements
Track Severe Weather on mobile